Time;durP1;ratioP1;P1;durP2;ratioP2;P2;SDS_P1;SDS_P2;PMS_P1;PMS_P2;Temp;Humidity;BMP_temperature;BMP_pressure;BME280_temperature;BME280_humidity;BME280_pressure;Samples;Min_cycle;Max_cycle;Signal;HPM_P1;HPM_P2
2022/09/19 00:00:08;;;;;;;;;;;;;;;;;;2206831;59;2007;-53
2022/09/19 00:02:41;;;;;;;;;;;;;;;;;;2207348;59;1706;-52
2022/09/19 00:05:15;;;;;;;;;;;;;;;;;;2207511;67;1263;-53
2022/09/19 00:07:52;;;;;;;;;;;;;;;;;;2206646;67;1148;-53
2022/09/19 00:10:25;;;;;;;;;;;;;;;;;;2207655;59;1278;-53
2022/09/19 00:12:59;;;;;;;;;;;;;;;;;;2207243;67;1252;-53
2022/09/19 00:15:33;;;;;;;;;;;;;;;;;;2206297;67;1034;-53
2022/09/19 00:18:06;;;;;;;;;;;;;;;;;;2206780;67;1936;-55
2022/09/19 00:20:41;;;;;;;;;;;;;;;;;;2206621;67;1297;-53
2022/09/19 00:26:06;;;;;;;;;;;;;;;;;;2204385;67;1107;-53
2022/09/19 00:28:40;;;;;;;;;;;;;;;;;;2207035;67;1175;-52
2022/09/19 00:31:17;;;;;;;;;;;;;;;;;;2207013;67;1216;-53
2022/09/19 00:33:51;;;;;;;;;;;;;;;;;;2206973;67;1156;-54
2022/09/19 00:36:25;;;;;;;;;;;;;;;;;;2206874;59;1190;-53
2022/09/19 00:39:00;;;;;;;;;;;;;;;;;;2206274;67;1984;-53
2022/09/19 00:41:36;;;;;;;;;;;;;;;;;;2206791;67;1043;-53
2022/09/19 00:44:24;;;;;;;;;;;;;;;;;;2206562;67;1126;-54
2022/09/19 00:46:59;;;;;;;;;;;;;;;;;;2206539;59;1839;-52
2022/09/19 00:49:37;;;;;;;;;;;;;;;;;;2207420;59;1261;-54
2022/09/19 00:52:13;;;;;;;;;;;;;;;;;;2207101;59;1339;-53
2022/09/19 00:54:51;;;;;;;;;;;;;;;;;;2207266;67;1180;-53
2022/09/19 00:57:25;;;;;;;;;;;;;;;;;;2207263;67;1144;-53
2022/09/19 00:59:58;;;;;;;;;;;;;;;;;;2206886;59;1984;-53
2022/09/19 01:02:32;;;;;;;;;;;;;;;;;;2207035;59;1686;-52
2022/09/19 01:05:07;;;;;;;;;;;;;;;;;;2207215;59;1200;-53
2022/09/19 01:07:46;;;;;;;;;;;;;;;;;;2205887;67;1143;-53
2022/09/19 01:10:28;;;;;;;;;;;;;;;;;;2207345;59;1374;-53
2022/09/19 01:13:09;;;;;;;;;;;;;;;;;;2206846;67;1118;-53
2022/09/19 01:15:50;;;;;;;;;;;;;;;;;;2206385;67;1239;-52
2022/09/19 01:18:27;;;;;;;;;;;;;;;;;;2206581;67;1996;-55
2022/09/19 01:24:20;;;;;;;;;;;;;;;;;;2206333;67;1123;-52
2022/09/19 01:27:09;;;;;;;;;;;;;;;;;;2207079;67;1193;-54
2022/09/19 01:29:52;;;;;;;;;;;;;;;;;;2219265;66;1558;-52
2022/09/19 01:32:30;;;;;;;;;;;;;;;;;;2218114;66;1236;-52
2022/09/19 01:35:05;;;;;;;;;;;;;;;;;;2218031;66;1209;-52
2022/09/19 01:37:41;;;;;;;;;;;;;;;;;;2217348;58;1103;-53
2022/09/19 01:40:15;;;;;;;;;;;;;;;;;;2217856;66;1243;-52
2022/09/19 01:42:55;;;;;;;;;;;;;;;;;;2218134;66;1164;-53
2022/09/19 01:45:32;;;;;;;;;;;;;;;;;;2218541;58;1741;-52
2022/09/19 01:48:09;;;;;;;;;;;;;;;;;;2217631;58;1937;-52
2022/09/19 01:50:48;;;;;;;;;;;;;;;;;;2217989;59;1488;-52
2022/09/19 01:53:30;;;;;;;;;;;;;;;;;;2217946;66;1213;-52
2022/09/19 01:56:09;;;;;;;;;;;;;;;;;;2218182;66;1221;-53
2022/09/19 01:58:47;;;;;;;;;;;;;;;;;;2217614;58;1329;-52
2022/09/19 02:01:28;;;;;;;;;;;;;;;;;;2217227;66;1197;-53
2022/09/19 02:04:06;;;;;;;;;;;;;;;;;;2216970;58;1173;-52
2022/09/19 02:06:48;;;;;;;;;;;;;;;;;;2217794;66;1114;-52
2022/09/19 02:09:25;;;;;;;;;;;;;;;;;;2217626;66;1933;-52
2022/09/19 02:12:00;;;;;;;;;;;;;;;;;;2217392;66;1178;-52
2022/09/19 02:14:35;;;;;;;;;;;;;;;;;;2217530;66;1114;-53
2022/09/19 02:17:14;;;;;;;;;;;;;;;;;;2217885;66;1124;-52
2022/09/19 02:19:49;;;;;;;;;;;;;;;;;;2216756;66;1253;-52
2022/09/19 02:22:26;;;;;;;;;;;;;;;;;;2217803;66;1203;-52
2022/09/19 02:25:01;;;;;;;;;;;;;;;;;;2217602;66;1220;-53
2022/09/19 02:27:37;;;;;;;;;;;;;;;;;;2218399;59;1401;-52
2022/09/19 02:30:11;;;;;;;;;;;;;;;;;;2217345;66;1242;-53
2022/09/19 02:32:49;;;;;;;;;;;;;;;;;;2217094;66;1229;-53
2022/09/19 02:35:34;;;;;;;;;;;;;;;;;;2217953;66;1110;-52
2022/09/19 02:38:14;;;;;;;;;;;;;;;;;;2217048;66;1131;-52
2022/09/19 02:40:50;;;;;;;;;;;;;;;;;;2215163;66;1245;-52
2022/09/19 02:43:29;;;;;;;;;;;;;;;;;;2214517;66;1304;-53
2022/09/19 02:46:06;;;;;;;;;;;;;;;;;;2215996;58;1295;-52
2022/09/19 02:48:49;;;;;;;;;;;;;;;;;;2215395;59;1959;-52
2022/09/19 02:51:25;;;;;;;;;;;;;;;;;;2215876;59;1602;-54
2022/09/19 02:54:01;;;;;;;;;;;;;;;;;;2214591;66;1259;-52
2022/09/19 02:56:36;;;;;;;;;;;;;;;;;;2215240;66;1109;-52
2022/09/19 02:59:11;;;;;;;;;;;;;;;;;;2215449;66;1156;-52
2022/09/19 03:01:49;;;;;;;;;;;;;;;;;;2215296;59;1576;-54
2022/09/19 03:04:29;;;;;;;;;;;;;;;;;;2215019;66;1236;-52
2022/09/19 03:07:06;;;;;;;;;;;;;;;;;;2215027;66;1214;-53
2022/09/19 03:09:40;;;;;;;;;;;;;;;;;;2214883;59;1935;-52
2022/09/19 03:12:18;;;;;;;;;;;;;;;;;;2215384;66;1189;-52
2022/09/19 03:14:55;;;;;;;;;;;;;;;;;;2214341;66;1163;-52
2022/09/19 03:17:31;;;;;;;;;;;;;;;;;;2214548;66;1198;-52
2022/09/19 03:20:11;;;;;;;;;;;;;;;;;;2214193;66;1207;-52
2022/09/19 03:22:45;;;;;;;;;;;;;;;;;;2215072;66;1249;-52
2022/09/19 03:25:18;;;;;;;;;;;;;;;;;;2214992;66;1369;-52
2022/09/19 03:27:51;;;;;;;;;;;;;;;;;;2215276;59;1294;-52
2022/09/19 03:30:24;;;;;;;;;;;;;;;;;;2214638;66;1944;-51
2022/09/19 03:32:59;;;;;;;;;;;;;;;;;;2214576;66;1229;-51
2022/09/19 03:35:36;;;;;;;;;;;;;;;;;;2215587;58;1281;-52
2022/09/19 03:38:09;;;;;;;;;;;;;;;;;;2215297;66;1571;-52
2022/09/19 03:40:43;;;;;;;;;;;;;;;;;;2214381;66;1303;-52
2022/09/19 03:43:17;;;;;;;;;;;;;;;;;;2214266;66;1099;-52
2022/09/19 03:45:50;;;;;;;;;;;;;;;;;;2215243;59;1234;-52
2022/09/19 03:48:23;;;;;;;;;;;;;;;;;;2214859;58;1935;-52
2022/09/19 03:51:01;;;;;;;;;;;;;;;;;;2214757;58;1576;-53
2022/09/19 03:53:34;;;;;;;;;;;;;;;;;;2214360;66;1080;-52
2022/09/19 03:56:09;;;;;;;;;;;;;;;;;;2214856;66;1114;-52
2022/09/19 03:58:43;;;;;;;;;;;;;;;;;;2214277;66;1111;-52
2022/09/19 04:01:17;;;;;;;;;;;;;;;;;;2214166;66;1446;-52
2022/09/19 04:03:51;;;;;;;;;;;;;;;;;;2214878;59;2057;-52
2022/09/19 04:06:27;;;;;;;;;;;;;;;;;;2214383;66;1211;-52
2022/09/19 04:09:00;;;;;;;;;;;;;;;;;;2214349;59;2037;-52
2022/09/19 04:11:34;;;;;;;;;;;;;;;;;;2215880;66;1256;-52
2022/09/19 04:14:07;;;;;;;;;;;;;;;;;;2214220;66;1067;-52
2022/09/19 04:16:40;;;;;;;;;;;;;;;;;;2214210;66;1087;-52
2022/09/19 04:19:14;;;;;;;;;;;;;;;;;;2214034;66;1246;-53
2022/09/19 04:21:50;;;;;;;;;;;;;;;;;;2214784;66;1173;-53
2022/09/19 04:24:25;;;;;;;;;;;;;;;;;;2215372;66;1246;-53
2022/09/19 04:27:06;;;;;;;;;;;;;;;;;;2215276;66;1630;-52
2022/09/19 04:29:40;;;;;;;;;;;;;;;;;;2213981;59;1996;-53
2022/09/19 04:32:15;;;;;;;;;;;;;;;;;;2214333;66;1098;-52
2022/09/19 04:34:49;;;;;;;;;;;;;;;;;;2214621;66;1144;-52
2022/09/19 04:37:25;;;;;;;;;;;;;;;;;;2214947;59;1169;-52
2022/09/19 04:39:58;;;;;;;;;;;;;;;;;;2215437;66;1245;-52
2022/09/19 04:42:34;;;;;;;;;;;;;;;;;;2214688;66;1177;-53
2022/09/19 04:45:07;;;;;;;;;;;;;;;;;;2214895;66;1114;-52
2022/09/19 04:47:40;;;;;;;;;;;;;;;;;;2214929;58;1345;-53
2022/09/19 04:50:14;;;;;;;;;;;;;;;;;;2215122;59;2110;-52
2022/09/19 04:52:50;;;;;;;;;;;;;;;;;;2214498;66;1142;-52
2022/09/19 04:55:24;;;;;;;;;;;;;;;;;;2214740;66;1228;-52
2022/09/19 04:57:57;;;;;;;;;;;;;;;;;;2214787;66;1161;-52
2022/09/19 05:00:45;;;;;;;;;;;;;;;;;;2214337;66;1196;-53
2022/09/19 05:03:20;;;;;;;;;;;;;;;;;;2215249;59;1768;-53
2022/09/19 05:05:54;;;;;;;;;;;;;;;;;;2214536;66;1197;-52
2022/09/19 05:08:31;;;;;;;;;;;;;;;;;;2214432;66;1231;-52
2022/09/19 05:11:05;;;;;;;;;;;;;;;;;;2214932;59;1996;-56
2022/09/19 05:13:40;;;;;;;;;;;;;;;;;;2215193;66;1300;-53
2022/09/19 05:16:13;;;;;;;;;;;;;;;;;;2214101;66;1239;-52
2022/09/19 05:18:49;;;;;;;;;;;;;;;;;;2214487;66;1253;-53
2022/09/19 05:21:22;;;;;;;;;;;;;;;;;;2214238;66;1247;-53
2022/09/19 05:23:58;;;;;;;;;;;;;;;;;;2214803;67;1093;-52
2022/09/19 05:26:31;;;;;;;;;;;;;;;;;;2215045;67;1187;-52
2022/09/19 05:29:04;;;;;;;;;;;;;;;;;;2213369;59;2010;-52
2022/09/19 05:31:38;;;;;;;;;;;;;;;;;;2215604;67;1269;-53
2022/09/19 05:34:13;;;;;;;;;;;;;;;;;;2214963;67;1232;-52
2022/09/19 05:36:47;;;;;;;;;;;;;;;;;;2213984;59;1296;-52
2022/09/19 05:39:23;;;;;;;;;;;;;;;;;;2214321;66;1256;-54
2022/09/19 05:41:58;;;;;;;;;;;;;;;;;;2214288;67;1093;-53
2022/09/19 05:44:31;;;;;;;;;;;;;;;;;;2215166;60;1615;-52
2022/09/19 05:47:05;;;;;;;;;;;;;;;;;;2215017;59;1362;-52
2022/09/19 05:49:39;;;;;;;;;;;;;;;;;;2214388;66;1928;-52
2022/09/19 05:55:03;;;;;;;;;;;;;;;;;;2214835;66;1169;-52
2022/09/19 05:57:36;;;;;;;;;;;;;;;;;;2215126;66;1130;-52
2022/09/19 06:00:11;;;;;;;;;;;;;;;;;;2214060;66;1176;-52
2022/09/19 06:02:44;;;;;;;;;;;;;;;;;;2214560;58;1737;-52
2022/09/19 06:05:17;;;;;;;;;;;;;;;;;;2214750;67;1200;-53
2022/09/19 06:07:51;;;;;;;;;;;;;;;;;;2214262;67;1158;-52
2022/09/19 06:10:27;;;;;;;;;;;;;;;;;;2214631;59;2000;-52
2022/09/19 06:13:00;;;;;;;;;;;;;;;;;;2213475;66;1247;-55
2022/09/19 06:15:33;;;;;;;;;;;;;;;;;;2214524;66;1043;-53
2022/09/19 06:18:07;;;;;;;;;;;;;;;;;;2214949;66;1133;-52
2022/09/19 06:20:40;;;;;;;;;;;;;;;;;;2214615;66;1225;-53
2022/09/19 06:23:14;;;;;;;;;;;;;;;;;;2215120;66;1117;-53
2022/09/19 06:25:50;;;;;;;;;;;;;;;;;;2214966;66;1240;-52
2022/09/19 06:28:23;;;;;;;;;;;;;;;;;;2214324;59;1256;-52
2022/09/19 06:30:56;;;;;;;;;;;;;;;;;;2214878;66;1981;-52
2022/09/19 06:33:29;;;;;;;;;;;;;;;;;;2215667;66;1018;-52
2022/09/19 06:36:03;;;;;;;;;;;;;;;;;;2214191;59;1251;-52
2022/09/19 06:38:38;;;;;;;;;;;;;;;;;;2214327;66;1173;-53
2022/09/19 06:41:15;;;;;;;;;;;;;;;;;;2214695;66;1197;-53
2022/09/19 06:43:48;;;;;;;;;;;;;;;;;;2215433;66;1158;-52
2022/09/19 06:46:21;;;;;;;;;;;;;;;;;;2214771;59;1201;-52
2022/09/19 06:48:55;;;;;;;;;;;;;;;;;;2215408;58;1346;-53
2022/09/19 06:51:29;;;;;;;;;;;;;;;;;;2215508;59;1998;-52
2022/09/19 06:54:02;;;;;;;;;;;;;;;;;;2215326;66;1221;-52
2022/09/19 06:56:39;;;;;;;;;;;;;;;;;;2214710;66;1074;-53
2022/09/19 06:59:12;;;;;;;;;;;;;;;;;;2214608;66;1140;-53
2022/09/19 07:01:45;;;;;;;;;;;;;;;;;;2215150;58;1721;-53
2022/09/19 07:04:18;;;;;;;;;;;;;;;;;;2215170;66;1198;-52
2022/09/19 07:06:52;;;;;;;;;;;;;;;;;;2215051;66;1185;-52
2022/09/19 07:09:25;;;;;;;;;;;;;;;;;;2215545;58;1973;-52
2022/09/19 07:12:01;;;;;;;;;;;;;;;;;;2214341;66;1307;-53
2022/09/19 07:14:34;;;;;;;;;;;;;;;;;;2214924;66;1103;-53
2022/09/19 07:17:07;;;;;;;;;;;;;;;;;;2214568;66;1107;-52
2022/09/19 07:19:40;;;;;;;;;;;;;;;;;;2214387;66;1238;-53
2022/09/19 07:22:16;;;;;;;;;;;;;;;;;;2214670;66;1205;-53
2022/09/19 07:24:49;;;;;;;;;;;;;;;;;;2215373;66;1249;-53
2022/09/19 07:27:26;;;;;;;;;;;;;;;;;;2215206;59;1476;-53
2022/09/19 07:29:59;;;;;;;;;;;;;;;;;;2213853;67;1939;-58
2022/09/19 07:32:32;;;;;;;;;;;;;;;;;;2214574;66;1171;-53
2022/09/19 07:35:05;;;;;;;;;;;;;;;;;;2215131;66;1273;-53
2022/09/19 07:37:39;;;;;;;;;;;;;;;;;;2214776;59;1160;-55
2022/09/19 07:40:13;;;;;;;;;;;;;;;;;;2215307;66;1199;-53
2022/09/19 07:42:50;;;;;;;;;;;;;;;;;;2216653;66;1136;-54
2022/09/19 07:45:23;;;;;;;;;;;;;;;;;;2216510;58;1439;-53
2022/09/19 07:47:58;;;;;;;;;;;;;;;;;;2215021;59;1294;-53
2022/09/19 07:50:32;;;;;;;;;;;;;;;;;;2215593;59;1930;-53
2022/09/19 07:53:06;;;;;;;;;;;;;;;;;;2215175;66;1104;-54
2022/09/19 07:55:41;;;;;;;;;;;;;;;;;;2214597;66;1154;-54
2022/09/19 07:58:16;;;;;;;;;;;;;;;;;;2216175;66;1241;-53
2022/09/19 08:00:50;;;;;;;;;;;;;;;;;;2213812;67;1127;-54
2022/09/19 08:03:24;;;;;;;;;;;;;;;;;;2214625;66;2008;-53
2022/09/19 08:05:57;;;;;;;;;;;;;;;;;;2215207;66;1017;-53
2022/09/19 08:08:30;;;;;;;;;;;;;;;;;;2214651;66;1060;-53
2022/09/19 08:11:05;;;;;;;;;;;;;;;;;;2215468;59;1927;-56
2022/09/19 08:13:40;;;;;;;;;;;;;;;;;;2214104;67;1080;-61
2022/09/19 08:16:14;;;;;;;;;;;;;;;;;;2214557;66;1122;-55
2022/09/19 08:18:48;;;;;;;;;;;;;;;;;;2215453;66;1283;-53
2022/09/19 08:21:21;;;;;;;;;;;;;;;;;;2215853;66;1318;-53
2022/09/19 08:23:54;;;;;;;;;;;;;;;;;;2213977;67;1182;-55
2022/09/19 08:26:27;;;;;;;;;;;;;;;;;;2214396;66;1140;-54
2022/09/19 08:29:03;;;;;;;;;;;;;;;;;;2213702;59;1333;-54
2022/09/19 08:31:36;;;;;;;;;;;;;;;;;;2215063;66;1990;-54
2022/09/19 08:34:10;;;;;;;;;;;;;;;;;;2215176;66;1661;-54
2022/09/19 08:36:43;;;;;;;;;;;;;;;;;;2215042;59;1155;-53
2022/09/19 08:39:17;;;;;;;;;;;;;;;;;;2214873;66;1190;-53
2022/09/19 08:41:55;;;;;;;;;;;;;;;;;;2214401;66;1075;-54
2022/09/19 08:44:39;;;;;;;;;;;;;;;;;;2214472;66;1034;-56
2022/09/19 08:47:13;;;;;;;;;;;;;;;;;;2215212;59;1307;-54
2022/09/19 08:49:50;;;;;;;;;;;;;;;;;;2214173;66;1253;-53
2022/09/19 08:52:30;;;;;;;;;;;;;;;;;;2214541;58;1992;-53
2022/09/19 08:55:04;;;;;;;;;;;;;;;;;;2213891;66;1197;-53
2022/09/19 08:57:39;;;;;;;;;;;;;;;;;;2213991;66;1118;-58
2022/09/19 09:00:17;;;;;;;;;;;;;;;;;;2213604;66;1187;-53
2022/09/19 09:02:55;;;;;;;;;;;;;;;;;;2215121;58;1669;-54
2022/09/19 09:05:36;;;;;;;;;;;;;;;;;;2213991;66;1181;-53
2022/09/19 09:08:16;;;;;;;;;;;;;;;;;;2214893;66;1167;-54
2022/09/19 09:10:53;;;;;;;;;;;;;;;;;;2215771;59;1943;-54
2022/09/19 09:13:35;;;;;;;;;;;;;;;;;;2214187;66;1233;-54
2022/09/19 09:16:19;;;;;;;;;;;;;;;;;;2214492;66;1217;-53
2022/09/19 09:19:02;;;;;;;;;;;;;;;;;;2213484;66;1253;-53
2022/09/19 09:21:44;;;;;;;;;;;;;;;;;;2214201;66;1149;-55
2022/09/19 09:24:20;;;;;;;;;;;;;;;;;;2214269;66;1119;-56
2022/09/19 09:26:55;;;;;;;;;;;;;;;;;;2215130;67;1098;-55
2022/09/19 09:29:31;;;;;;;;;;;;;;;;;;2212588;58;1432;-53
2022/09/19 09:32:14;;;;;;;;;;;;;;;;;;2214561;67;1937;-53
2022/09/19 09:34:50;;;;;;;;;;;;;;;;;;2213844;67;1142;-53
2022/09/19 09:37:25;;;;;;;;;;;;;;;;;;2214565;59;1160;-54
2022/09/19 09:40:09;;;;;;;;;;;;;;;;;;2214563;67;1216;-54
2022/09/19 09:42:47;;;;;;;;;;;;;;;;;;2214420;67;1261;-52
2022/09/19 09:45:28;;;;;;;;;;;;;;;;;;2214188;67;1501;-53
2022/09/19 09:48:09;;;;;;;;;;;;;;;;;;2214456;59;1376;-54
2022/09/19 09:50:48;;;;;;;;;;;;;;;;;;2214656;58;1945;-55
2022/09/19 09:53:29;;;;;;;;;;;;;;;;;;2214240;66;1213;-55
2022/09/19 09:56:15;;;;;;;;;;;;;;;;;;2214516;66;1191;-55
2022/09/19 09:58:56;;;;;;;;;;;;;;;;;;2214701;66;1191;-54
2022/09/19 10:04:33;;;;;;;;;;;;;;;;;;2214880;66;1171;-53
2022/09/19 10:07:10;;;;;;;;;;;;;;;;;;2215452;66;1144;-54
2022/09/19 10:09:48;;;;;;;;;;;;;;;;;;2215442;59;1230;-56
2022/09/19 10:12:24;;;;;;;;;;;;;;;;;;2215578;66;1928;-53
2022/09/19 10:15:00;;;;;;;;;;;;;;;;;;2215934;66;1101;-53
2022/09/19 10:17:37;;;;;;;;;;;;;;;;;;2214947;66;1198;-55
2022/09/19 10:20:19;;;;;;;;;;;;;;;;;;2215848;66;1200;-54
2022/09/19 10:22:53;;;;;;;;;;;;;;;;;;2216377;66;1162;-56
2022/09/19 10:25:26;;;;;;;;;;;;;;;;;;2215138;66;1271;-54
2022/09/19 10:28:04;;;;;;;;;;;;;;;;;;2214837;59;1245;-53
2022/09/19 10:30:41;;;;;;;;;;;;;;;;;;2215554;66;1932;-54
2022/09/19 10:33:19;;;;;;;;;;;;;;;;;;2215446;66;1170;-53
2022/09/19 10:35:58;;;;;;;;;;;;;;;;;;2215525;59;1137;-54
2022/09/19 10:38:34;;;;;;;;;;;;;;;;;;2216062;58;1346;-54
2022/09/19 10:41:07;;;;;;;;;;;;;;;;;;2215401;66;1207;-53
2022/09/19 10:43:46;;;;;;;;;;;;;;;;;;2216164;66;1143;-55
2022/09/19 10:46:21;;;;;;;;;;;;;;;;;;2215701;58;1176;-53
2022/09/19 10:48:58;;;;;;;;;;;;;;;;;;2216305;58;1339;-55
2022/09/19 10:51:36;;;;;;;;;;;;;;;;;;2216396;59;1931;-54
2022/09/19 10:54:11;;;;;;;;;;;;;;;;;;2214804;66;1067;-54
2022/09/19 10:56:44;;;;;;;;;;;;;;;;;;2214571;66;1189;-55
2022/09/19 10:59:27;;;;;;;;;;;;;;;;;;2214078;66;1189;-53
2022/09/19 11:02:19;;;;;;;;;;;;;;;;;;2214683;66;1642;-56
2022/09/19 11:04:59;;;;;;;;;;;;;;;;;;2215122;66;1090;-55
2022/09/19 11:07:48;;;;;;;;;;;;;;;;;;2214686;66;1218;-54
2022/09/19 11:10:32;;;;;;;;;;;;;;;;;;2214948;59;1330;-53
2022/09/19 11:13:15;;;;;;;;;;;;;;;;;;2215035;66;1992;-58
2022/09/19 11:16:17;;;;;;;;;;;;;;;;;;2214643;66;1126;-54
2022/09/19 11:19:08;;;;;;;;;;;;;;;;;;2214936;66;1317;-54
2022/09/19 11:21:47;;;;;;;;;;;;;;;;;;2215167;66;1304;-59
2022/09/19 11:24:32;;;;;;;;;;;;;;;;;;2211347;66;1596;-55
2022/09/19 11:27:23;;;;;;;;;;;;;;;;;;2215697;66;1075;-53
2022/09/19 11:30:02;;;;;;;;;;;;;;;;;;2215511;66;2066;-56
2022/09/19 11:32:44;;;;;;;;;;;;;;;;;;2215536;66;1929;-57
2022/09/19 11:35:25;;;;;;;;;;;;;;;;;;2214482;66;1205;-55
2022/09/19 11:38:05;;;;;;;;;;;;;;;;;;2214520;58;1568;-56
2022/09/19 11:40:50;;;;;;;;;;;;;;;;;;2214906;58;1997;-55
2022/09/19 11:43:30;;;;;;;;;;;;;;;;;;2216637;58;1443;-53
2022/09/19 11:46:07;;;;;;;;;;;;;;;;;;2215007;59;1210;-56
2022/09/19 11:48:58;;;;;;;;;;;;;;;;;;2215233;58;1824;-53
2022/09/19 11:51:36;;;;;;;;;;;;;;;;;;2215341;58;1949;-56
2022/09/19 11:54:22;;;;;;;;;;;;;;;;;;2215084;66;1200;-53
2022/09/19 11:57:08;;;;;;;;;;;;;;;;;;2215152;66;1088;-58
2022/09/19 12:00:00;;;;;;;;;;;;;;;;;;2214948;59;1223;-55
2022/09/19 12:02:58;;;;;;;;;;;;;;;;;;2215451;58;1651;-54
2022/09/19 12:05:37;;;;;;;;;;;;;;;;;;2214819;66;1028;-56
2022/09/19 12:08:27;;;;;;;;;;;;;;;;;;2215837;66;1258;-54
2022/09/19 12:11:05;;;;;;;;;;;;;;;;;;2215046;59;1820;-60
2022/09/19 12:13:46;;;;;;;;;;;;;;;;;;2215127;66;1945;-57
2022/09/19 12:16:24;;;;;;;;;;;;;;;;;;2215033;58;1125;-57
2022/09/19 12:19:00;;;;;;;;;;;;;;;;;;2214698;66;1237;-54
2022/09/19 12:21:38;;;;;;;;;;;;;;;;;;2215515;66;1097;-56
2022/09/19 12:27:12;;;;;;;;;;;;;;;;;;2215148;66;1144;-53
2022/09/19 12:29:51;;;;;;;;;;;;;;;;;;2212973;66;1179;-56
2022/09/19 12:32:28;;;;;;;;;;;;;;;;;;2215055;66;1944;-54
2022/09/19 12:35:05;;;;;;;;;;;;;;;;;;2214252;66;1172;-55
2022/09/19 12:37:40;;;;;;;;;;;;;;;;;;2214344;59;1181;-53
2022/09/19 12:40:28;;;;;;;;;;;;;;;;;;2215060;66;1215;-54
2022/09/19 12:43:11;;;;;;;;;;;;;;;;;;2214591;66;1209;-54
2022/09/19 12:45:51;;;;;;;;;;;;;;;;;;2215713;58;1276;-53
2022/09/19 12:48:30;;;;;;;;;;;;;;;;;;2215322;66;1344;-54
2022/09/19 12:51:08;;;;;;;;;;;;;;;;;;2214873;58;1487;-55
2022/09/19 12:53:44;;;;;;;;;;;;;;;;;;2213856;59;1956;-54
2022/09/19 12:56:23;;;;;;;;;;;;;;;;;;2214903;66;1184;-56
2022/09/19 12:59:02;;;;;;;;;;;;;;;;;;2214515;66;1110;-53
2022/09/19 13:01:42;;;;;;;;;;;;;;;;;;2215901;58;1800;-55
2022/09/19 13:04:21;;;;;;;;;;;;;;;;;;2215467;66;1119;-53
2022/09/19 13:06:57;;;;;;;;;;;;;;;;;;2214424;66;1133;-55
2022/09/19 13:09:32;;;;;;;;;;;;;;;;;;2215416;59;1153;-57
2022/09/19 13:12:09;;;;;;;;;;;;;;;;;;2214787;66;1933;-55
2022/09/19 13:14:47;;;;;;;;;;;;;;;;;;2214552;59;1257;-54
2022/09/19 13:25:57;;;;;;;;;;;;;;;;;;2214789;66;1116;-53
2022/09/19 13:28:34;;;;;;;;;;;;;;;;;;2215236;59;1102;-53
2022/09/19 13:31:15;;;;;;;;;;;;;;;;;;2215572;67;1211;-54
2022/09/19 13:33:57;;;;;;;;;;;;;;;;;;2215134;67;1947;-53
2022/09/19 13:36:43;;;;;;;;;;;;;;;;;;2217186;59;1226;-53
2022/09/19 13:39:38;;;;;;;;;;;;;;;;;;2215106;67;1251;-53
2022/09/19 13:42:13;;;;;;;;;;;;;;;;;;2215865;58;2357;-53
2022/09/19 13:44:50;;;;;;;;;;;;;;;;;;2214447;59;1289;-53
2022/09/19 13:47:27;;;;;;;;;;;;;;;;;;2214802;59;1396;-53
2022/09/19 13:50:09;;;;;;;;;;;;;;;;;;2214376;59;1542;-53
2022/09/19 13:52:45;;;;;;;;;;;;;;;;;;2214386;66;1933;-53
2022/09/19 13:55:21;;;;;;;;;;;;;;;;;;2215356;67;1202;-53
2022/09/19 13:58:14;;;;;;;;;;;;;;;;;;2215184;59;1354;-53
2022/09/19 14:00:48;;;;;;;;;;;;;;;;;;2214819;67;1138;-53
2022/09/19 14:03:26;;;;;;;;;;;;;;;;;;2215728;58;1705;-55
2022/09/19 14:06:17;;;;;;;;;;;;;;;;;;2214410;67;1180;-55
2022/09/19 14:09:13;;;;;;;;;;;;;;;;;;2214361;67;1154;-54
2022/09/19 14:11:48;;;;;;;;;;;;;;;;;;2214785;67;1144;-53
2022/09/19 14:14:40;;;;;;;;;;;;;;;;;;2214894;66;1935;-53
2022/09/19 14:17:17;;;;;;;;;;;;;;;;;;2214820;67;1379;-55
2022/09/19 14:19:53;;;;;;;;;;;;;;;;;;2214059;67;1168;-55
2022/09/19 14:22:43;;;;;;;;;;;;;;;;;;2215213;67;1180;-53
2022/09/19 14:25:23;;;;;;;;;;;;;;;;;;2215350;67;1223;-54
2022/09/19 14:28:03;;;;;;;;;;;;;;;;;;2214259;59;1103;-54
2022/09/19 14:30:43;;;;;;;;;;;;;;;;;;2215318;67;1214;-55
2022/09/19 14:33:37;;;;;;;;;;;;;;;;;;2214480;67;2062;-54
2022/09/19 14:36:17;;;;;;;;;;;;;;;;;;2214672;66;1190;-55
2022/09/19 14:39:02;;;;;;;;;;;;;;;;;;2216122;66;1292;-53
2022/09/19 14:41:48;;;;;;;;;;;;;;;;;;2216609;66;1125;-54
2022/09/19 14:44:36;;;;;;;;;;;;;;;;;;2214811;66;1068;-54
2022/09/19 14:47:12;;;;;;;;;;;;;;;;;;2215745;59;1312;-53
2022/09/19 14:49:49;;;;;;;;;;;;;;;;;;2215471;58;1276;-53
2022/09/19 14:52:25;;;;;;;;;;;;;;;;;;2215800;58;1936;-54
2022/09/19 14:55:01;;;;;;;;;;;;;;;;;;2215035;66;1284;-56
2022/09/19 14:57:36;;;;;;;;;;;;;;;;;;2216615;66;1132;-56
2022/09/19 15:00:15;;;;;;;;;;;;;;;;;;2215569;66;1245;-53
2022/09/19 15:02:50;;;;;;;;;;;;;;;;;;2215499;59;1681;-54
2022/09/19 15:05:26;;;;;;;;;;;;;;;;;;2214726;66;1268;-53
2022/09/19 15:07:59;;;;;;;;;;;;;;;;;;2214662;66;1229;-55
2022/09/19 15:10:37;;;;;;;;;;;;;;;;;;2216566;59;1167;-55
2022/09/19 15:13:25;;;;;;;;;;;;;;;;;;2216230;66;1927;-53
2022/09/19 15:16:00;;;;;;;;;;;;;;;;;;2214429;66;1200;-55
2022/09/19 15:18:38;;;;;;;;;;;;;;;;;;2215824;66;1062;-54
2022/09/19 15:21:16;;;;;;;;;;;;;;;;;;2216013;66;1285;-53
2022/09/19 15:23:50;;;;;;;;;;;;;;;;;;2215596;66;1121;-53
2022/09/19 15:26:25;;;;;;;;;;;;;;;;;;2216306;66;1087;-54
2022/09/19 15:29:03;;;;;;;;;;;;;;;;;;2214679;59;1230;-53
2022/09/19 15:31:37;;;;;;;;;;;;;;;;;;2215751;59;1202;-55
2022/09/19 15:34:13;;;;;;;;;;;;;;;;;;2215293;66;1994;-53
2022/09/19 15:36:47;;;;;;;;;;;;;;;;;;2215076;58;1162;-54
2022/09/19 15:39:20;;;;;;;;;;;;;;;;;;2214772;66;1251;-53
2022/09/19 15:41:54;;;;;;;;;;;;;;;;;;2215004;66;1120;-54
2022/09/19 15:44:32;;;;;;;;;;;;;;;;;;2215269;66;1239;-53
2022/09/19 15:47:07;;;;;;;;;;;;;;;;;;2215809;58;1306;-54
2022/09/19 15:49:41;;;;;;;;;;;;;;;;;;2215866;58;1324;-53
2022/09/19 15:52:18;;;;;;;;;;;;;;;;;;2214924;58;1837;-53
2022/09/19 15:54:52;;;;;;;;;;;;;;;;;;2214378;66;1943;-54
2022/09/19 15:57:30;;;;;;;;;;;;;;;;;;2215144;66;1218;-53
2022/09/19 16:00:09;;;;;;;;;;;;;;;;;;2214195;66;1213;-54
2022/09/19 16:02:46;;;;;;;;;;;;;;;;;;2214759;58;1750;-54
2022/09/19 16:05:21;;;;;;;;;;;;;;;;;;2214589;66;1247;-53
2022/09/19 16:10:45;;;;;;;;;;;;;;;;;;2215304;59;1238;-53
2022/09/19 16:13:35;;;;;;;;;;;;;;;;;;2214653;66;1987;-52
2022/09/19 16:16:26;;;;;;;;;;;;;;;;;;2215466;66;1228;-53
2022/09/19 16:19:02;;;;;;;;;;;;;;;;;;2214969;66;1250;-53
2022/09/19 16:21:37;;;;;;;;;;;;;;;;;;2215009;66;1196;-53
2022/09/19 16:24:11;;;;;;;;;;;;;;;;;;2214953;66;1120;-61
2022/09/19 16:26:44;;;;;;;;;;;;;;;;;;2215487;66;1090;-53
2022/09/19 16:29:17;;;;;;;;;;;;;;;;;;2215029;59;1223;-53
2022/09/19 16:31:50;;;;;;;;;;;;;;;;;;2215930;66;1295;-53
2022/09/19 16:34:33;;;;;;;;;;;;;;;;;;2215197;66;1996;-54
2022/09/19 16:37:06;;;;;;;;;;;;;;;;;;2215332;59;1275;-53
2022/09/19 16:39:52;;;;;;;;;;;;;;;;;;2214719;66;1296;-53
2022/09/19 16:42:30;;;;;;;;;;;;;;;;;;2215215;66;1282;-53
2022/09/19 16:45:05;;;;;;;;;;;;;;;;;;2214600;66;1244;-54
2022/09/19 16:47:38;;;;;;;;;;;;;;;;;;2215494;58;1343;-55
2022/09/19 16:50:16;;;;;;;;;;;;;;;;;;2215061;59;1608;-54
2022/09/19 16:52:51;;;;;;;;;;;;;;;;;;2215053;66;1079;-53
2022/09/19 16:55:25;;;;;;;;;;;;;;;;;;2214683;66;1287;-53
2022/09/19 16:57:59;;;;;;;;;;;;;;;;;;2214431;66;1168;-53
2022/09/19 17:00:32;;;;;;;;;;;;;;;;;;2214754;66;1230;-53
2022/09/19 17:03:06;;;;;;;;;;;;;;;;;;2214941;66;1713;-54
2022/09/19 17:05:41;;;;;;;;;;;;;;;;;;2215087;66;1247;-52
2022/09/19 17:08:15;;;;;;;;;;;;;;;;;;2214238;66;1210;-54
2022/09/19 17:10:49;;;;;;;;;;;;;;;;;;2215297;59;1218;-53
2022/09/19 17:13:22;;;;;;;;;;;;;;;;;;2215236;66;1998;-53
2022/09/19 17:15:58;;;;;;;;;;;;;;;;;;2215460;66;1102;-53
2022/09/19 17:18:31;;;;;;;;;;;;;;;;;;2214928;66;1110;-53
2022/09/19 17:21:07;;;;;;;;;;;;;;;;;;2213909;66;1295;-53
2022/09/19 17:23:40;;;;;;;;;;;;;;;;;;2216008;66;1190;-55
2022/09/19 17:26:15;;;;;;;;;;;;;;;;;;2214532;66;1183;-53
2022/09/19 17:28:48;;;;;;;;;;;;;;;;;;2214247;59;1099;-53
2022/09/19 17:31:21;;;;;;;;;;;;;;;;;;2215775;67;1261;-53
2022/09/19 17:33:54;;;;;;;;;;;;;;;;;;2215091;66;1931;-53
2022/09/19 17:36:30;;;;;;;;;;;;;;;;;;2215669;58;1253;-52
2022/09/19 17:39:04;;;;;;;;;;;;;;;;;;2214763;67;1248;-52
2022/09/19 17:41:37;;;;;;;;;;;;;;;;;;2215069;66;1201;-54
2022/09/19 17:44:11;;;;;;;;;;;;;;;;;;2215039;67;1126;-52
2022/09/19 17:46:44;;;;;;;;;;;;;;;;;;2214567;59;1337;-53
2022/09/19 17:49:17;;;;;;;;;;;;;;;;;;2214235;67;1187;-52
2022/09/19 17:51:53;;;;;;;;;;;;;;;;;;2215145;59;1546;-52
2022/09/19 17:54:28;;;;;;;;;;;;;;;;;;2213872;66;1938;-52
2022/09/19 17:57:01;;;;;;;;;;;;;;;;;;2214601;67;1241;-52
2022/09/19 17:59:34;;;;;;;;;;;;;;;;;;2213652;66;1274;-53
2022/09/19 18:05:11;;;;;;;;;;;;;;;;;;2209468;67;1258;-54
2022/09/19 18:07:47;;;;;;;;;;;;;;;;;;2210257;67;1132;-53
2022/09/19 18:10:21;;;;;;;;;;;;;;;;;;2212928;59;1207;-52
2022/09/19 18:12:55;;;;;;;;;;;;;;;;;;2215316;66;1127;-52
2022/09/19 18:15:28;;;;;;;;;;;;;;;;;;2214814;66;1931;-54
2022/09/19 18:18:02;;;;;;;;;;;;;;;;;;2215234;66;1246;-54
2022/09/19 18:20:35;;;;;;;;;;;;;;;;;;2216512;66;1205;-53
2022/09/19 18:23:13;;;;;;;;;;;;;;;;;;2215224;66;1623;-52
2022/09/19 18:25:46;;;;;;;;;;;;;;;;;;2215684;66;1231;-52
2022/09/19 18:28:20;;;;;;;;;;;;;;;;;;2215404;59;1318;-54
2022/09/19 18:30:53;;;;;;;;;;;;;;;;;;2215569;66;1222;-54
2022/09/19 18:33:27;;;;;;;;;;;;;;;;;;2215299;66;1186;-54
2022/09/19 18:36:05;;;;;;;;;;;;;;;;;;2214589;59;1290;-52
2022/09/19 18:38:41;;;;;;;;;;;;;;;;;;2215823;66;1284;-52